createdAt,value
2019-04-14T00:00:06.124Z,3.06
2019-04-14T00:01:17.937Z,2.96
2019-04-14T00:02:29.961Z,2.96
2019-04-14T00:03:41.783Z,2.89
2019-04-14T00:04:53.611Z,2.91
2019-04-14T00:06:05.446Z,2.94
2019-04-14T00:07:17.125Z,2.92
2019-04-14T00:08:29.003Z,2.96
2019-04-14T00:09:40.707Z,2.97
2019-04-14T00:10:51.355Z,2.89
2019-04-14T00:12:09.338Z,2.96
2019-04-14T00:13:22.404Z,2.91
2019-04-14T00:14:34.288Z,2.88
2019-04-14T00:15:53.731Z,2.81
2019-04-14T00:17:04.856Z,2.81
2019-04-14T00:18:16.773Z,2.73
2019-04-14T00:19:26.877Z,2.69
2019-04-14T00:20:38.597Z,2.63
2019-04-14T00:21:50.168Z,2.51
2019-04-14T00:23:00.471Z,2.46
2019-04-14T00:24:12.281Z,2.51
2019-04-14T00:25:24.390Z,2.52
2019-04-14T00:26:36.467Z,2.51
2019-04-14T00:27:48.178Z,2.36
2019-04-14T00:28:58.428Z,2.44
2019-04-14T00:30:10.440Z,2.31
2019-04-14T00:31:22.249Z,2.34
2019-04-14T00:32:33.678Z,2.33
2019-04-14T00:33:43.804Z,2.33
2019-04-14T00:34:57.420Z,2.24
2019-04-14T00:36:08.644Z,2.21
2019-04-14T00:37:19.045Z,2.08
2019-04-14T00:38:30.945Z,2.1
2019-04-14T00:39:42.878Z,2.03
2019-04-14T00:40:54.655Z,2.05
2019-04-14T00:42:10.149Z,2.05
2019-04-14T00:43:20.586Z,2.08
2019-04-14T00:44:32.547Z,2.06
2019-04-14T00:45:59.672Z,2.03
2019-04-14T00:47:14.221Z,2.05
2019-04-14T00:48:28.344Z,2
2019-04-14T00:49:40.334Z,2.08
2019-04-14T00:50:52.307Z,2.12
2019-04-14T00:52:04.598Z,2.03
2019-04-14T00:53:17.047Z,2.13
2019-04-14T00:54:28.864Z,2.1
2019-04-14T00:55:40.666Z,2.03
2019-04-14T00:56:52.575Z,2.05
2019-04-14T00:58:04.098Z,2.03
2019-04-14T00:59:14.224Z,2.01
2019-04-14T01:00:27.904Z,1.91
2019-04-14T01:01:38.011Z,2
2019-04-14T01:02:49.963Z,1.94
2019-04-14T01:04:01.913Z,1.91
2019-04-14T01:05:13.876Z,1.88
2019-04-14T01:06:25.724Z,1.9
2019-04-14T01:07:37.640Z,1.88
2019-04-14T01:08:49.489Z,1.87
2019-04-14T01:10:02.368Z,1.79
2019-04-14T01:11:14.502Z,1.88
2019-04-14T01:12:26.293Z,1.84
2019-04-14T01:13:37.851Z,1.85
2019-04-14T01:14:47.813Z,1.85
2019-04-14T01:16:19.954Z,1.79
2019-04-14T01:17:33.620Z,1.84
2019-04-14T01:18:45.698Z,1.92
2019-04-14T01:19:57.702Z,1.79
2019-04-14T01:21:09.496Z,1.9
2019-04-14T01:22:21.199Z,1.9
2019-04-14T01:23:33.204Z,1.8
2019-04-14T01:24:45.296Z,1.87
2019-04-14T01:25:56.998Z,1.76
2019-04-14T01:27:08.863Z,1.74
2019-04-14T01:28:20.737Z,1.72
2019-04-14T01:29:32.598Z,1.73
2019-04-14T01:30:44.355Z,1.73
2019-04-14T01:31:56.146Z,1.76
2019-04-14T01:33:08.180Z,1.74
2019-04-14T01:34:20.097Z,1.73
2019-04-14T01:35:32.004Z,1.74
2019-04-14T01:36:43.630Z,1.74
2019-04-14T01:37:55.642Z,1.66
2019-04-14T01:39:07.457Z,1.69
2019-04-14T01:40:19.141Z,1.55
2019-04-14T01:41:30.985Z,1.67
2019-04-14T01:42:42.665Z,1.66
2019-04-14T01:43:54.548Z,1.58
2019-04-14T01:45:06.321Z,1.58
2019-04-14T01:46:32.658Z,1.66
2019-04-14T01:47:44.894Z,1.67
2019-04-14T01:48:54.986Z,1.64
2019-04-14T01:50:06.410Z,1.74
2019-04-14T01:51:17.512Z,1.67
2019-04-14T01:52:28.149Z,1.73
2019-04-14T01:53:40.597Z,1.77
2019-04-14T01:54:51.862Z,1.8
2019-04-14T01:56:01.945Z,1.77
2019-04-14T01:57:13.784Z,1.84
2019-04-14T01:58:25.677Z,1.8
2019-04-14T01:59:37.587Z,1.74
2019-04-14T02:00:49.497Z,1.72
2019-04-14T02:02:01.440Z,1.8
2019-04-14T02:03:13.435Z,1.8
2019-04-14T02:04:25.277Z,1.87
2019-04-14T02:05:36.339Z,1.95
2019-04-14T02:06:46.844Z,1.74
2019-04-14T02:07:58.703Z,1.72
2019-04-14T02:09:10.315Z,1.7
2019-04-14T02:10:22.180Z,1.79
2019-04-14T02:11:34.154Z,1.73
2019-04-14T02:12:45.871Z,1.67
2019-04-14T02:13:57.828Z,1.67
2019-04-14T02:15:09.690Z,1.54
2019-04-14T02:16:48.543Z,1.53
2019-04-14T02:18:08.194Z,1.57
2019-04-14T02:19:20.333Z,1.55
2019-04-14T02:20:32.175Z,1.57
2019-04-14T02:21:43.818Z,1.5
2019-04-14T02:22:55.689Z,1.54
2019-04-14T02:24:07.444Z,1.58
2019-04-14T02:25:18.929Z,1.55
2019-04-14T02:26:29.040Z,1.57
2019-04-14T02:27:40.960Z,1.57
2019-04-14T02:28:51.135Z,1.58
2019-04-14T02:30:03.793Z,1.54
